Time;durP1;ratioP1;P1;durP2;ratioP2;P2;SDS_P1;SDS_P2;PMS_P1;PMS_P2;Temp;Humidity;BMP_temperature;BMP_pressure;BME280_temperature;BME280_humidity;BME280_pressure;Samples;Min_cycle;Max_cycle;Signal;HPM_P1;HPM_P2
2024/02/03 00:01:37;;;;;;;;;;;;;;;7.86;100.00;101056.34;5043547;28;19924;-80
2024/02/03 00:04:05;;;;;;;;;;;;;;;7.90;100.00;101048.53;5029607;28;19925;-80
2024/02/03 00:06:33;;;;;;;;;;;;;;;7.87;100.00;101052.59;5040707;28;20496;-80
2024/02/03 00:09:08;;;;;;;;;;;;;;;7.96;100.00;101040.19;5032943;28;19925;-80
2024/02/03 00:11:36;;;;;;;;;;;;;;;7.95;100.00;101043.97;5041706;28;20520;-80
2024/02/03 00:14:06;;;;;;;;;;;;;;;7.91;100.00;101037.47;5040779;28;19921;-80
2024/02/03 00:16:34;;;;;;;;;;;;;;;7.94;100.00;101045.06;5042313;28;19927;-80
2024/02/03 00:19:08;;;;;;;;;;;;;;;7.96;100.00;101042.09;5025506;28;20416;-80
2024/02/03 00:21:41;;;;;;;;;;;;;;;8.03;100.00;101036.50;5044312;28;19925;-80
2024/02/03 00:24:15;;;;;;;;;;;;;;;8.03;100.00;101042.72;5045825;28;19928;-80
2024/02/03 00:26:48;;;;;;;;;;;;;;;7.95;100.00;101054.81;5042675;28;19932;-80
2024/02/03 00:29:21;;;;;;;;;;;;;;;7.93;100.00;101058.88;5040444;28;19935;-80
2024/02/03 00:31:54;;;;;;;;;;;;;;;7.94;100.00;101055.06;5044311;28;19925;-80
2024/02/03 00:34:27;;;;;;;;;;;;;;;7.87;100.00;101046.31;5030701;28;19924;-80
2024/02/03 00:37:01;;;;;;;;;;;;;;;7.84;100.00;101036.81;5041392;28;19925;-80
2024/02/03 00:39:35;;;;;;;;;;;;;;;7.87;100.00;101044.44;5043529;28;19920;-80
2024/02/03 00:42:04;;;;;;;;;;;;;;;7.80;100.00;101032.97;5042798;28;20467;-80
2024/02/03 00:44:38;;;;;;;;;;;;;;;7.77;100.00;101034.28;5031724;28;19924;-80
2024/02/03 00:47:06;;;;;;;;;;;;;;;7.74;100.00;101029.38;5041080;28;19924;-81
2024/02/03 00:49:34;;;;;;;;;;;;;;;7.77;100.00;101030.75;5022502;28;19921;-80
2024/02/03 00:52:07;;;;;;;;;;;;;;;7.73;100.00;101033.16;5035575;28;20304;-80
2024/02/03 00:54:38;;;;;;;;;;;;;;;7.75;100.00;101030.22;5043936;28;19921;-80
2024/02/03 00:57:11;;;;;;;;;;;;;;;7.74;100.00;101032.09;5044257;28;19924;-80
2024/02/03 00:59:45;;;;;;;;;;;;;;;7.74;100.00;101028.56;5045190;28;19925;-80
2024/02/03 01:02:18;;;;;;;;;;;;;;;7.66;100.00;101030.66;5040994;28;19931;-80
2024/02/03 01:04:46;;;;;;;;;;;;;;;7.70;100.00;101035.56;5040918;28;19925;-80
2024/02/03 01:07:14;;;;;;;;;;;;;;;7.69;100.00;101012.25;5026176;28;19925;-81
2024/02/03 01:09:48;;;;;;;;;;;;;;;7.64;100.00;101032.78;5045212;28;20101;-80
2024/02/03 01:12:17;;;;;;;;;;;;;;;7.66;100.00;101027.94;5043659;28;20349;-80
2024/02/03 01:14:46;;;;;;;;;;;;;;;7.62;100.00;101028.69;5039649;28;19921;-81
2024/02/03 01:17:19;;;;;;;;;;;;;;;7.66;100.00;101036.06;5030958;28;19928;-80
2024/02/03 01:19:53;;;;;;;;;;;;;;;7.74;100.00;101026.66;5042638;28;19925;-80
2024/02/03 01:22:27;;;;;;;;;;;;;;;7.71;100.00;101032.59;5042093;28;19931;-81
2024/02/03 01:24:56;;;;;;;;;;;;;;;7.65;100.00;101033.59;5059469;28;20290;-81
2024/02/03 01:27:29;;;;;;;;;;;;;;;7.66;100.00;101037.94;5042297;28;19925;-81
2024/02/03 01:29:57;;;;;;;;;;;;;;;7.67;100.00;101045.00;5041135;28;20565;-81
2024/02/03 01:32:30;;;;;;;;;;;;;;;7.68;100.00;101043.09;5029250;28;19932;-80
2024/02/03 01:35:03;;;;;;;;;;;;;;;7.72;100.00;101046.94;5043520;28;19935;-80
2024/02/03 01:37:36;;;;;;;;;;;;;;;7.75;100.00;101047.28;5028244;28;19925;-81
2024/02/03 01:40:12;;;;;;;;;;;;;;;7.74;100.00;101037.50;5043481;28;19925;-81
2024/02/03 01:42:45;;;;;;;;;;;;;;;7.81;100.00;101038.13;5057384;28;20551;-80
2024/02/03 01:45:14;;;;;;;;;;;;;;;7.72;100.00;101031.53;5043124;28;19924;-80
2024/02/03 01:47:42;;;;;;;;;;;;;;;7.78;100.00;101044.06;5045341;28;19947;-81
2024/02/03 01:50:12;;;;;;;;;;;;;;;7.78;100.00;101040.53;5044589;28;19948;-80
2024/02/03 01:52:40;;;;;;;;;;;;;;;7.76;100.00;101038.09;5046520;28;19920;-81
2024/02/03 01:55:09;;;;;;;;;;;;;;;7.78;100.00;101041.34;5039337;28;19921;-81
2024/02/03 01:57:44;;;;;;;;;;;;;;;7.76;100.00;101031.81;5028312;28;20486;-81
2024/02/03 02:00:12;;;;;;;;;;;;;;;7.78;100.00;101037.81;5030459;28;19921;-80
2024/02/03 02:02:40;;;;;;;;;;;;;;;7.76;100.00;101031.81;5042515;28;19928;-80
2024/02/03 02:05:09;;;;;;;;;;;;;;;7.77;100.00;101037.00;5041326;28;19932;-80
2024/02/03 02:07:42;;;;;;;;;;;;;;;7.82;100.00;101037.06;5038481;28;19925;-81
2024/02/03 02:10:16;;;;;;;;;;;;;;;7.77;100.00;101033.47;5043211;28;19924;-80
2024/02/03 02:12:52;;;;;;;;;;;;;;;7.77;100.00;101031.56;5042615;28;20301;-81
2024/02/03 02:15:25;;;;;;;;;;;;;;;7.82;100.00;101031.66;5039612;28;19928;-80
2024/02/03 02:17:57;;;;;;;;;;;;;;;7.80;100.00;101031.09;5039601;28;19931;-81
2024/02/03 02:20:31;;;;;;;;;;;;;;;7.77;100.00;101037.00;5039480;28;19928;-80
2024/02/03 02:23:04;;;;;;;;;;;;;;;7.80;100.00;101041.94;5024837;28;19929;-81
2024/02/03 02:25:32;;;;;;;;;;;;;;;7.78;100.00;101044.06;5045161;28;19931;-81
2024/02/03 02:28:05;;;;;;;;;;;;;;;7.78;100.00;101033.22;5037040;28;19924;-80
2024/02/03 02:30:33;;;;;;;;;;;;;;;7.88;100.00;101042.56;5044250;28;19920;-81
2024/02/03 02:33:02;;;;;;;;;;;;;;;7.83;100.00;101029.78;5040428;28;19932;-81
2024/02/03 02:35:36;;;;;;;;;;;;;;;7.86;100.00;101040.09;5028198;28;19924;-81
2024/02/03 02:38:09;;;;;;;;;;;;;;;7.89;100.00;101030.66;5042656;28;19928;-81
2024/02/03 02:40:42;;;;;;;;;;;;;;;7.86;100.00;101029.25;5044481;28;19932;-81
2024/02/03 02:43:15;;;;;;;;;;;;;;;7.85;100.00;101041.16;5042826;28;20286;-81
2024/02/03 02:45:43;;;;;;;;;;;;;;;7.88;100.00;101042.56;5039813;28;19925;-82
2024/02/03 02:48:12;;;;;;;;;;;;;;;7.85;100.00;101029.50;5043686;28;19924;-81
2024/02/03 02:50:46;;;;;;;;;;;;;;;7.85;100.00;101033.03;5047229;28;19928;-80
2024/02/03 02:53:19;;;;;;;;;;;;;;;7.90;100.00;101032.25;5043806;28;19924;-81
2024/02/03 02:55:52;;;;;;;;;;;;;;;7.89;100.00;101031.47;5031090;28;19925;-81
2024/02/03 02:58:25;;;;;;;;;;;;;;;7.92;100.00;101022.81;5044990;28;19924;-81
2024/02/03 03:00:53;;;;;;;;;;;;;;;7.94;100.00;101036.09;5043602;28;19925;-81
2024/02/03 03:03:21;;;;;;;;;;;;;;;7.90;100.00;101024.97;5049449;28;19999;-81
2024/02/03 03:05:57;;;;;;;;;;;;;;;7.89;100.00;101017.91;5045808;28;19921;-81
2024/02/03 03:08:25;;;;;;;;;;;;;;;7.92;100.00;101028.22;5046731;28;19921;-81
2024/02/03 03:10:53;;;;;;;;;;;;;;;7.89;100.00;101012.50;5046145;28;20286;-81
2024/02/03 03:13:21;;;;;;;;;;;;;;;7.88;100.00;101016.25;5045341;28;19925;-81
2024/02/03 03:15:49;;;;;;;;;;;;;;;7.91;100.00;101015.78;5043288;28;19932;-82
2024/02/03 03:18:16;;;;;;;;;;;;;;;7.89;100.00;101014.38;5045028;28;19921;-81
2024/02/03 03:20:49;;;;;;;;;;;;;;;7.89;100.00;101006.25;5028968;28;20337;-81
2024/02/03 03:23:19;;;;;;;;;;;;;;;7.89;100.00;101015.19;5056949;28;19948;-81
2024/02/03 03:25:51;;;;;;;;;;;;;;;7.88;100.00;101013.56;5041645;28;19959;-81
2024/02/03 03:28:24;;;;;;;;;;;;;;;7.89;100.00;101019.81;5045947;28;19925;-81
2024/02/03 03:30:52;;;;;;;;;;;;;;;7.86;100.00;101018.41;5046347;28;19925;-81
2024/02/03 03:33:25;;;;;;;;;;;;;;;7.87;100.00;101011.09;5043584;28;19920;-81
2024/02/03 03:35:53;;;;;;;;;;;;;;;7.86;100.00;101023.84;5044280;28;19928;-81
2024/02/03 03:38:28;;;;;;;;;;;;;;;7.87;100.00;101019.22;5058727;28;19921;-81
2024/02/03 03:41:01;;;;;;;;;;;;;;;7.91;100.00;101007.66;5043983;28;19928;-81
2024/02/03 03:43:34;;;;;;;;;;;;;;;7.92;100.00;101008.47;5042471;28;19921;-81
2024/02/03 03:46:02;;;;;;;;;;;;;;;7.89;100.00;101004.34;5046965;28;19924;-81
2024/02/03 03:48:30;;;;;;;;;;;;;;;7.89;100.00;101006.25;5041438;28;20304;-81
2024/02/03 03:50:57;;;;;;;;;;;;;;;7.92;100.00;100998.41;5025556;28;19924;-81
2024/02/03 03:53:32;;;;;;;;;;;;;;;7.88;100.00;101002.72;5033672;28;19920;-81
2024/02/03 03:56:00;;;;;;;;;;;;;;;7.90;100.00;101010.59;5046426;28;19978;-81
2024/02/03 03:58:28;;;;;;;;;;;;;;;7.89;100.00;101012.50;5038144;28;20297;-81
2024/02/03 04:01:01;;;;;;;;;;;;;;;7.96;100.00;101013.09;5055506;28;19928;-81
2024/02/03 04:03:28;;;;;;;;;;;;;;;7.93;100.00;100999.25;5048021;28;19921;-81
2024/02/03 04:06:01;;;;;;;;;;;;;;;7.95;100.00;101011.47;5043121;28;20309;-81
2024/02/03 04:08:36;;;;;;;;;;;;;;;7.98;100.00;101004.72;5044013;28;19944;-81
2024/02/03 04:11:09;;;;;;;;;;;;;;;8.01;100.00;100998.81;5046175;28;19931;-81
2024/02/03 04:13:42;;;;;;;;;;;;;;;7.99;100.00;101003.66;5046749;28;19932;-82
2024/02/03 04:16:14;;;;;;;;;;;;;;;7.96;100.00;100993.31;5038163;28;19928;-81
2024/02/03 04:18:43;;;;;;;;;;;;;;;8.00;100.00;101005.28;5040474;28;19928;-81
2024/02/03 04:21:15;;;;;;;;;;;;;;;7.96;100.00;100994.13;5027800;28;19932;-81
2024/02/03 04:23:50;;;;;;;;;;;;;;;7.90;100.00;101013.28;5045002;28;19920;-81
2024/02/03 04:26:23;;;;;;;;;;;;;;;7.85;100.00;101003.22;5043688;28;19929;-81
2024/02/03 04:28:51;;;;;;;;;;;;;;;7.97;100.00;100992.25;5046112;28;19932;-81
2024/02/03 04:31:24;;;;;;;;;;;;;;;8.01;100.00;100982.53;5042382;28;19927;-81
2024/02/03 04:33:58;;;;;;;;;;;;;;;7.96;100.00;100986.00;5039460;28;19932;-81
2024/02/03 04:36:31;;;;;;;;;;;;;;;7.89;100.00;100990.81;5030152;28;19921;-82
2024/02/03 04:39:00;;;;;;;;;;;;;;;7.95;100.00;100970.81;5044843;28;19925;-81
2024/02/03 04:41:33;;;;;;;;;;;;;;;7.90;100.00;100986.19;5046026;28;19928;-82
2024/02/03 04:44:06;;;;;;;;;;;;;;;7.83;100.00;100979.09;5040928;28;19925;-82
2024/02/03 04:46:39;;;;;;;;;;;;;;;7.89;100.00;100976.44;5044745;28;19920;-81
2024/02/03 04:49:12;;;;;;;;;;;;;;;7.86;100.00;100975.06;5042100;28;19921;-82
2024/02/03 04:51:40;;;;;;;;;;;;;;;7.82;100.00;100966.63;5042116;28;19928;-82
2024/02/03 04:54:09;;;;;;;;;;;;;;;7.89;100.00;100962.91;5040187;28;19932;-81
2024/02/03 04:56:37;;;;;;;;;;;;;;;7.80;100.00;100978.78;5037098;28;20328;-81
2024/02/03 04:59:10;;;;;;;;;;;;;;;7.86;100.00;100963.38;5047088;28;19921;-81
2024/02/03 05:01:38;;;;;;;;;;;;;;;7.85;100.00;100962.59;5058555;28;19924;-82
2024/02/03 05:04:11;;;;;;;;;;;;;;;7.81;100.00;100953.31;5043027;28;20424;-81
2024/02/03 05:06:44;;;;;;;;;;;;;;;7.85;100.00;100959.88;5047279;28;19927;-81
2024/02/03 05:09:14;;;;;;;;;;;;;;;7.81;100.00;100959.56;5041932;28;19920;-81
2024/02/03 05:11:42;;;;;;;;;;;;;;;7.85;100.00;100953.66;5028968;28;19920;-81
2024/02/03 05:14:15;;;;;;;;;;;;;;;7.87;100.00;100965.88;5044589;28;19921;-81
2024/02/03 05:16:48;;;;;;;;;;;;;;;7.82;100.00;100953.06;5043785;28;19924;-81
2024/02/03 05:19:23;;;;;;;;;;;;;;;7.89;100.00;100955.56;5040526;28;19932;-81
2024/02/03 05:21:56;;;;;;;;;;;;;;;7.90;100.00;100962.66;5043024;28;19924;-81
2024/02/03 05:24:30;;;;;;;;;;;;;;;7.89;100.00;100961.00;5022366;28;19930;-81
2024/02/03 05:26:58;;;;;;;;;;;;;;;7.95;100.00;100956.44;5041640;28;20524;-81
2024/02/03 05:29:31;;;;;;;;;;;;;;;7.94;100.00;100962.94;5043764;28;19925;-81
2024/02/03 05:32:04;;;;;;;;;;;;;;;7.91;100.00;100949.91;5038198;28;19929;-81
2024/02/03 05:34:37;;;;;;;;;;;;;;;7.90;100.00;100968.06;5044720;28;19925;-81
2024/02/03 05:37:05;;;;;;;;;;;;;;;7.99;100.00;100950.25;5056519;28;19920;-81
2024/02/03 05:39:40;;;;;;;;;;;;;;;7.97;100.00;100962.44;5037014;28;19949;-81
2024/02/03 05:42:12;;;;;;;;;;;;;;;8.03;100.00;100961.41;5041882;28;19921;-81
2024/02/03 05:44:45;;;;;;;;;;;;;;;7.94;100.00;100966.47;5038106;28;19943;-81
2024/02/03 05:47:13;;;;;;;;;;;;;;;7.95;100.00;100965.38;5027947;28;19932;-81
2024/02/03 05:49:46;;;;;;;;;;;;;;;8.00;100.00;100962.72;5022159;28;20381;-81
2024/02/03 05:52:19;;;;;;;;;;;;;;;8.02;100.00;100970.59;5044526;28;20842;-82
2024/02/03 05:54:49;;;;;;;;;;;;;;;8.02;100.00;100965.19;5044307;28;20320;-82
2024/02/03 05:57:21;;;;;;;;;;;;;;;8.05;100.00;100966.56;5043825;28;19925;-81
2024/02/03 05:59:54;;;;;;;;;;;;;;;8.02;100.00;100948.94;5036436;28;19928;-81
2024/02/03 06:02:30;;;;;;;;;;;;;;;8.04;100.00;100968.47;5054475;28;20497;-81
2024/02/03 06:05:03;;;;;;;;;;;;;;;7.98;100.00;100956.78;5043876;28;20365;-81
2024/02/03 06:07:36;;;;;;;;;;;;;;;8.06;100.00;100968.22;5040141;28;19921;-81
2024/02/03 06:10:11;;;;;;;;;;;;;;;8.05;100.00;100962.00;5040036;28;20353;-81
2024/02/03 06:12:43;;;;;;;;;;;;;;;8.07;100.00;100959.03;5025574;28;19929;-81
2024/02/03 06:15:11;;;;;;;;;;;;;;;8.04;100.00;100960.34;5040120;28;19921;-81
2024/02/03 06:17:39;;;;;;;;;;;;;;;8.06;100.00;100962.78;5036929;28;20373;-81
2024/02/03 06:20:08;;;;;;;;;;;;;;;8.05;100.00;100950.31;5034836;28;19928;-82
2024/02/03 06:22:36;;;;;;;;;;;;;;;8.10;100.00;100953.88;5046428;28;19932;-81
2024/02/03 06:25:10;;;;;;;;;;;;;;;8.08;100.00;100947.91;5048574;28;19936;-81
2024/02/03 06:27:43;;;;;;;;;;;;;;;8.07;100.00;100945.47;5048813;28;20428;-82
2024/02/03 06:30:11;;;;;;;;;;;;;;;8.06;100.00;100944.63;5045724;28;19924;-82
2024/02/03 06:32:44;;;;;;;;;;;;;;;8.11;100.00;100952.81;5048190;28;19963;-81
2024/02/03 06:35:12;;;;;;;;;;;;;;;8.11;100.00;100950.09;5046852;28;20377;-81
2024/02/03 06:37:45;;;;;;;;;;;;;;;8.13;100.00;100939.84;5049477;28;19932;-81
2024/02/03 06:40:14;;;;;;;;;;;;;;;8.13;100.00;100939.84;5048589;28;19929;-81
2024/02/03 06:42:48;;;;;;;;;;;;;;;8.20;100.00;100960.47;5052850;28;19921;-82
2024/02/03 06:45:21;;;;;;;;;;;;;;;8.20;100.00;100955.06;5045992;28;19925;-81
2024/02/03 06:47:49;;;;;;;;;;;;;;;8.20;100.00;100957.78;5045797;28;19924;-81
2024/02/03 06:50:17;;;;;;;;;;;;;;;8.18;100.00;100969.69;5047186;28;20659;-81
2024/02/03 06:52:50;;;;;;;;;;;;;;;8.22;100.00;100956.44;5047650;28;19921;-81
2024/02/03 06:55:24;;;;;;;;;;;;;;;8.16;100.00;100957.47;5047273;28;19925;-81
2024/02/03 06:57:57;;;;;;;;;;;;;;;8.18;100.00;100960.75;5032965;28;20007;-81
2024/02/03 07:00:25;;;;;;;;;;;;;;;8.21;100.00;100954.81;5044967;28;19936;-81
2024/02/03 07:02:53;;;;;;;;;;;;;;;8.25;100.00;100966.78;5043826;28;20369;-81
2024/02/03 07:05:26;;;;;;;;;;;;;;;8.26;100.00;100976.56;5043655;28;19927;-81
2024/02/03 07:08:01;;;;;;;;;;;;;;;8.31;100.00;100983.91;5035487;28;20395;-81
2024/02/03 07:10:35;;;;;;;;;;;;;;;8.31;100.00;100986.63;5041372;28;20019;-81
2024/02/03 07:13:08;;;;;;;;;;;;;;;8.27;100.00;100990.91;5046328;28;19927;-81
2024/02/03 07:15:36;;;;;;;;;;;;;;;8.32;100.00;100999.09;5050930;28;19925;-81
2024/02/03 07:18:04;;;;;;;;;;;;;;;8.29;100.00;101000.44;5050080;28;19935;-81
2024/02/03 07:20:32;;;;;;;;;;;;;;;8.29;100.00;101000.44;5043916;28;19928;-81
2024/02/03 07:23:00;;;;;;;;;;;;;;;8.39;100.00;101005.13;5033058;28;19928;-80
2024/02/03 07:25:28;;;;;;;;;;;;;;;8.40;100.00;101012.19;5040634;28;19924;-81
2024/02/03 07:28:03;;;;;;;;;;;;;;;8.40;100.00;101014.91;5024789;28;19929;-81
2024/02/03 07:30:31;;;;;;;;;;;;;;;8.42;100.00;101010.03;5041398;28;19929;-81
2024/02/03 07:33:01;;;;;;;;;;;;;;;8.41;100.00;101018.44;5030507;28;19925;-80
2024/02/03 07:35:29;;;;;;;;;;;;;;;8.43;100.00;101011.69;5028655;28;19921;-82
2024/02/03 07:37:57;;;;;;;;;;;;;;;8.47;100.00;101018.25;5046806;28;20276;-86
2024/02/03 07:40:25;;;;;;;;;;;;;;;8.44;100.00;101015.22;5046378;28;19929;-81
2024/02/03 07:42:53;;;;;;;;;;;;;;;8.43;100.00;101013.59;5047312;28;19929;-80
2024/02/03 07:45:23;;;;;;;;;;;;;;;8.47;100.00;101012.03;5043166;28;19921;-81
2024/02/03 07:47:55;;;;;;;;;;;;;;;8.46;100.00;101013.91;5044804;28;19948;-84
2024/02/03 07:50:23;;;;;;;;;;;;;;;8.46;100.00;101013.91;5060295;28;20385;-82
2024/02/03 07:52:51;;;;;;;;;;;;;;;8.44;100.00;101018.75;5045140;28;19921;-83
2024/02/03 07:55:24;;;;;;;;;;;;;;;8.47;100.00;101018.25;5062623;28;19925;-83
2024/02/03 07:57:52;;;;;;;;;;;;;;;8.50;100.00;101030.50;5043225;28;19932;-82
2024/02/03 08:00:29;;;;;;;;;;;;;;;8.49;100.00;101028.84;5042508;28;19932;-82
2024/02/03 08:02:57;;;;;;;;;;;;;;;8.54;100.00;101036.22;5042593;28;19936;-82
2024/02/03 08:05:30;;;;;;;;;;;;;;;8.59;100.00;101031.66;5042825;28;19925;-82
2024/02/03 08:08:03;;;;;;;;;;;;;;;8.57;100.00;101033.00;5028255;28;19944;-81
2024/02/03 08:10:31;;;;;;;;;;;;;;;8.53;100.00;101031.88;5043490;28;19920;-82
2024/02/03 08:12:59;;;;;;;;;;;;;;;8.54;100.00;101042.47;5044001;28;19947;-82
2024/02/03 08:15:29;;;;;;;;;;;;;;;8.54;100.00;101031.63;5058362;28;19940;-82
2024/02/03 08:18:01;;;;;;;;;;;;;;;8.50;100.00;101023.16;5042324;28;19921;-82
2024/02/03 08:20:35;;;;;;;;;;;;;;;8.49;100.00;101039.69;5025916;28;19921;-82
2024/02/03 08:23:03;;;;;;;;;;;;;;;8.53;100.00;101040.00;5044836;28;19920;-82
2024/02/03 08:25:36;;;;;;;;;;;;;;;8.53;100.00;101053.56;5048926;28;19920;-83
2024/02/03 08:28:06;;;;;;;;;;;;;;;8.62;100.00;101030.34;5037392;28;19928;-83
2024/02/03 08:30:37;;;;;;;;;;;;;;;8.59;100.00;101050.66;5046187;28;19928;-83
2024/02/03 08:33:05;;;;;;;;;;;;;;;8.60;100.00;101040.63;5064350;28;19921;-83
2024/02/03 08:35:38;;;;;;;;;;;;;;;8.67;100.00;101043.94;5029814;28;19936;-83
2024/02/03 08:38:06;;;;;;;;;;;;;;;8.67;100.00;101041.22;5036460;28;19921;-83
2024/02/03 08:40:39;;;;;;;;;;;;;;;8.66;100.00;101047.75;5058622;28;19925;-84
2024/02/03 08:43:07;;;;;;;;;;;;;;;8.64;100.00;101047.97;5041206;28;19922;-82
2024/02/03 08:45:42;;;;;;;;;;;;;;;8.66;100.00;101050.44;5027916;28;20352;-83
2024/02/03 08:48:15;;;;;;;;;;;;;;;8.63;100.00;101042.81;5042611;28;19931;-82
2024/02/03 08:50:43;;;;;;;;;;;;;;;8.51;100.00;101038.38;5039441;28;19947;-82
2024/02/03 08:53:16;;;;;;;;;;;;;;;8.50;100.00;101052.19;5029106;28;20301;-82
2024/02/03 08:55:49;;;;;;;;;;;;;;;8.60;100.00;101044.13;5060544;28;19920;-83
2024/02/03 08:58:17;;;;;;;;;;;;;;;8.62;100.00;101036.56;5038872;28;19932;-83
2024/02/03 09:00:46;;;;;;;;;;;;;;;8.45;100.00;101041.28;5038454;28;19928;-83
2024/02/03 09:03:14;;;;;;;;;;;;;;;8.41;100.00;101062.66;5047505;28;19921;-83
2024/02/03 09:05:47;;;;;;;;;;;;;;;8.40;100.00;101050.16;5045696;28;19931;-83
2024/02/03 09:08:20;;;;;;;;;;;;;;;8.51;100.00;101062.78;5059944;28;19921;-83
2024/02/03 09:10:48;;;;;;;;;;;;;;;8.40;100.00;101054.78;5048671;28;19928;-83
2024/02/03 09:13:16;;;;;;;;;;;;;;;8.43;100.00;101057.78;5029461;28;19932;-83
2024/02/03 09:15:51;;;;;;;;;;;;;;;8.61;100.00;101053.09;5059793;28;19932;-82
2024/02/03 09:18:24;;;;;;;;;;;;;;;8.50;100.00;101057.63;5040393;28;19925;-83
2024/02/03 09:20:52;;;;;;;;;;;;;;;8.51;100.00;101057.34;5050972;28;19928;-83
2024/02/03 09:23:20;;;;;;;;;;;;;;;8.55;100.00;101049.53;5037359;28;19928;-83
2024/02/03 09:25:48;;;;;;;;;;;;;;;8.57;100.00;101047.38;5060166;28;19920;-83
2024/02/03 09:28:16;;;;;;;;;;;;;;;8.59;100.00;101056.09;5041283;28;19943;-83
2024/02/03 09:30:50;;;;;;;;;;;;;;;8.58;100.00;101059.88;5049792;28;19932;-83
2024/02/03 09:33:24;;;;;;;;;;;;;;;8.68;100.00;101059.13;5039231;28;19923;-83
2024/02/03 09:35:57;;;;;;;;;;;;;;;8.65;100.00;101051.53;5063812;28;19931;-83
2024/02/03 09:38:30;;;;;;;;;;;;;;;8.68;100.00;101057.22;5034975;28;19921;-83
2024/02/03 09:41:03;;;;;;;;;;;;;;;8.73;100.00;101056.47;5035542;28;19928;-82
2024/02/03 09:43:36;;;;;;;;;;;;;;;8.72;100.00;101054.03;5041217;28;19925;-82
2024/02/03 09:46:06;;;;;;;;;;;;;;;8.77;100.00;101057.59;5037526;28;19925;-83
2024/02/03 09:48:39;;;;;;;;;;;;;;;8.71;100.00;101065.94;5034440;28;19928;-82
2024/02/03 09:51:12;;;;;;;;;;;;;;;8.71;100.00;101047.75;5019334;28;19944;-83
2024/02/03 09:53:40;;;;;;;;;;;;;;;8.73;100.00;101056.47;5017653;28;19928;-83
2024/02/03 09:56:13;;;;;;;;;;;;;;;8.77;100.00;101060.31;5029968;28;21394;-83
2024/02/03 09:58:41;;;;;;;;;;;;;;;8.82;100.00;101067.66;5019568;28;19929;-83
2024/02/03 10:01:11;;;;;;;;;;;;;;;8.85;100.00;101067.16;5010942;28;19928;-83
2024/02/03 10:03:41;;;;;;;;;;;;;;;8.75;100.00;101058.94;5024093;28;20831;-83
2024/02/03 10:06:18;;;;;;;;;;;;;;;8.82;100.00;101064.94;5026908;28;19929;-83
2024/02/03 10:08:51;;;;;;;;;;;;;;;8.76;100.00;101074.13;5027180;28;19928;-83
2024/02/03 10:11:19;;;;;;;;;;;;;;;8.74;100.00;101060.84;5023860;28;19980;-83
2024/02/03 10:13:48;;;;;;;;;;;;;;;8.68;100.00;101070.00;5027274;28;19940;-85
2024/02/03 10:16:22;;;;;;;;;;;;;;;8.76;100.00;101071.44;5015570;28;19935;-83
2024/02/03 10:18:55;;;;;;;;;;;;;;;8.74;100.00;101068.13;5009750;28;19929;-82
2024/02/03 10:21:24;;;;;;;;;;;;;;;8.79;100.00;101074.44;5027127;28;19928;-82
2024/02/03 10:23:57;;;;;;;;;;;;;;;8.80;100.00;101069.84;5047823;28;20619;-83
2024/02/03 10:26:25;;;;;;;;;;;;;;;8.85;100.00;101073.41;5029770;28;20483;-83
2024/02/03 10:28:53;;;;;;;;;;;;;;;8.82;100.00;101073.94;5021848;28;19929;-83
2024/02/03 10:31:27;;;;;;;;;;;;;;;8.82;100.00;101081.25;5005514;28;19933;-83
2024/02/03 10:34:00;;;;;;;;;;;;;;;8.88;100.00;101080.22;5032327;28;19996;-83
2024/02/03 10:36:33;;;;;;;;;;;;;;;8.90;100.00;101071.81;5024194;28;19999;-83
2024/02/03 10:39:02;;;;;;;;;;;;;;;8.89;100.00;101073.69;5030681;28;19925;-83
2024/02/03 10:41:38;;;;;;;;;;;;;;;8.84;100.00;101073.66;5034070;28;19928;-83
2024/02/03 10:44:08;;;;;;;;;;;;;;;8.77;100.00;101075.75;5029872;28;19924;-83
2024/02/03 10:46:42;;;;;;;;;;;;;;;8.71;100.00;101065.94;5012113;28;20015;-83
2024/02/03 10:49:16;;;;;;;;;;;;;;;8.73;100.00;101061.91;5031179;28;19928;-81
2024/02/03 10:51:51;;;;;;;;;;;;;;;8.90;100.00;101072.63;4984736;28;19929;-83
2024/02/03 10:54:25;;;;;;;;;;;;;;;8.66;100.00;101072.16;5026106;28;20035;-83
2024/02/03 10:56:53;;;;;;;;;;;;;;;8.54;100.00;101076.91;5026559;28;19929;-83
2024/02/03 10:59:21;;;;;;;;;;;;;;;8.49;100.00;101077.66;5016899;28;19944;-83
2024/02/03 11:01:56;;;;;;;;;;;;;;;8.56;100.00;101055.75;5030017;28;19928;-83
2024/02/03 11:04:23;;;;;;;;;;;;;;;8.60;100.00;101065.84;5033854;28;20757;-83
2024/02/03 11:06:52;;;;;;;;;;;;;;;8.58;100.00;101084.28;5030316;28;19928;-83
2024/02/03 11:09:22;;;;;;;;;;;;;;;8.55;100.00;101087.50;5026162;28;20531;-83
2024/02/03 11:11:52;;;;;;;;;;;;;;;8.39;100.00;101091.91;5027133;28;19940;-83
2024/02/03 11:14:27;;;;;;;;;;;;;;;8.46;100.00;101072.75;5025848;28;19929;-83
2024/02/03 11:16:57;;;;;;;;;;;;;;;8.60;100.00;101073.97;5032584;28;20034;-83
2024/02/03 11:19:26;;;;;;;;;;;;;;;8.46;100.00;101060.00;5028768;28;19929;-83
2024/02/03 11:21:55;;;;;;;;;;;;;;;8.46;100.00;101061.91;5014330;28;19940;-83
2024/02/03 11:24:23;;;;;;;;;;;;;;;8.39;100.00;101061.28;5021404;28;19936;-83
2024/02/03 11:26:55;;;;;;;;;;;;;;;8.43;100.00;101054.25;5023846;28;19937;-83
2024/02/03 11:29:23;;;;;;;;;;;;;;;8.46;100.00;101068.16;5008764;28;19932;-83
2024/02/03 11:31:58;;;;;;;;;;;;;;;8.60;100.00;101056.88;5047361;28;20668;-83
2024/02/03 11:34:32;;;;;;;;;;;;;;;8.55;100.00;101067.69;5019551;28;21006;-83
2024/02/03 11:37:00;;;;;;;;;;;;;;;8.50;100.00;101055.72;5019790;28;19928;-83
2024/02/03 11:39:34;;;;;;;;;;;;;;;8.50;100.00;101050.28;5024711;28;19929;-81
2024/02/03 11:42:08;;;;;;;;;;;;;;;8.50;100.00;101044.84;5017769;28;19928;-83
2024/02/03 11:44:47;;;;;;;;;;;;;;;8.58;100.00;101048.22;5030270;28;21595;-83
2024/02/03 11:47:19;;;;;;;;;;;;;;;8.60;100.00;101048.75;5019129;28;19929;-82
2024/02/03 11:49:53;;;;;;;;;;;;;;;8.53;100.00;101038.09;5028094;28;19937;-83
2024/02/03 11:52:22;;;;;;;;;;;;;;;8.57;100.00;101043.84;5013682;28;19956;-83
2024/02/03 11:54:55;;;;;;;;;;;;;;;8.64;100.00;101042.53;5026230;28;19936;-82
2024/02/03 11:57:23;;;;;;;;;;;;;;;8.66;100.00;101040.41;5002718;28;19935;-82
2024/02/03 11:59:58;;;;;;;;;;;;;;;8.76;100.00;101026.09;5044370;28;19931;-83
2024/02/03 12:02:27;;;;;;;;;;;;;;;8.63;100.00;101027.38;5022836;28;19929;-82
2024/02/03 12:05:00;;;;;;;;;;;;;;;8.64;100.00;101028.97;5025172;28;19928;-83
2024/02/03 12:07:34;;;;;;;;;;;;;;;8.63;100.00;101021.94;5025005;28;19932;-82
2024/02/03 12:10:07;;;;;;;;;;;;;;;8.67;100.00;101028.47;5009800;28;19929;-87
2024/02/03 12:12:35;;;;;;;;;;;;;;;8.65;100.00;101006.19;5039770;28;19928;-82
2024/02/03 12:15:10;;;;;;;;;;;;;;;8.72;100.00;101016.03;5008676;28;19929;-83
2024/02/03 12:17:46;;;;;;;;;;;;;;;8.73;100.00;101014.94;5010180;28;19935;-82
2024/02/03 12:20:23;;;;;;;;;;;;;;;8.84;100.00;101013.97;5029994;28;19928;-82
2024/02/03 12:22:51;;;;;;;;;;;;;;;8.77;100.00;101016.06;5043027;28;19929;-83
2024/02/03 12:25:20;;;;;;;;;;;;;;;8.81;100.00;101018.00;5024894;28;19943;-83
2024/02/03 12:27:48;;;;;;;;;;;;;;;8.72;100.00;101022.28;5021950;28;20505;-83
2024/02/03 12:30:17;;;;;;;;;;;;;;;8.67;100.00;101019.50;5012534;28;19929;-82
2024/02/03 12:32:52;;;;;;;;;;;;;;;8.73;100.00;101021.19;5008595;28;19929;-82
2024/02/03 12:35:24;;;;;;;;;;;;;;;8.75;100.00;101019.03;5028436;28;19921;-82
2024/02/03 12:37:52;;;;;;;;;;;;;;;8.69;100.00;101017.38;5030649;28;19929;-83
2024/02/03 12:40:26;;;;;;;;;;;;;;;8.64;100.00;101017.31;5027578;28;20412;-82
2024/02/03 12:42:59;;;;;;;;;;;;;;;8.67;100.00;101012.22;5014439;28;19929;-83
2024/02/03 12:45:26;;;;;;;;;;;;;;;8.56;100.00;101009.66;5028789;28;19936;-83
2024/02/03 12:47:56;;;;;;;;;;;;;;;8.68;100.00;101002.16;5023423;28;20381;-83
2024/02/03 12:50:30;;;;;;;;;;;;;;;8.74;100.00;101012.00;5028972;28;19928;-83
2024/02/03 12:52:58;;;;;;;;;;;;;;;8.70;100.00;101007.31;4998197;28;19929;-83
2024/02/03 12:55:31;;;;;;;;;;;;;;;8.67;100.00;101001.34;5024231;28;21269;-83